Time;durP1;ratioP1;P1;durP2;ratioP2;P2;SDS_P1;SDS_P2;PMS_P1;PMS_P2;Temp;Humidity;BMP_temperature;BMP_pressure;BME280_temperature;BME280_humidity;BME280_pressure;Samples;Min_cycle;Max_cycle;Signal;HPM_P1;HPM_P2
2023/08/20 00:00:25;;;;;;;0.10;0.10;;;15.90;99.90;;;;;;5094311;27;20473;-68
2023/08/20 00:03:02;;;;;;;0.20;0.20;;;15.90;99.90;;;;;;5088706;28;20050;-68
2023/08/20 00:05:29;;;;;;;0.90;0.43;;;15.90;99.90;;;;;;5094887;27;20043;-68
2023/08/20 00:07:54;;;;;;;4.47;0.32;;;15.90;99.90;;;;;;5088611;28;20544;-68
2023/08/20 00:10:20;;;;;;;0.30;0.30;;;15.80;99.90;;;;;;5109126;27;20045;-68
2023/08/20 00:12:45;;;;;;;0.32;0.20;;;15.80;99.90;;;;;;5114615;27;20058;-68
2023/08/20 00:15:11;;;;;;;0.65;0.65;;;15.70;99.90;;;;;;5100881;28;20035;-68
2023/08/20 00:17:39;;;;;;;1.08;0.10;;;15.50;99.90;;;;;;5093205;28;20379;-68
2023/08/20 00:20:12;;;;;;;0.40;0.40;;;15.40;99.90;;;;;;5101401;28;20035;-67
2023/08/20 00:22:39;;;;;;;0.73;0.73;;;15.30;99.90;;;;;;5089938;28;20115;-68
2023/08/20 00:25:06;;;;;;;0.20;0.20;;;15.20;99.90;;;;;;5096097;28;20488;-68
2023/08/20 00:27:32;;;;;;;0.13;0.13;;;15.20;99.90;;;;;;5092776;28;20134;-68
2023/08/20 00:29:58;;;;;;;0.08;0.08;;;15.10;99.90;;;;;;5097513;28;20413;-68
2023/08/20 00:32:24;;;;;;;0.13;0.10;;;15.10;99.90;;;;;;5126389;27;20050;-68
2023/08/20 00:34:50;;;;;;;0.52;0.13;;;15.10;99.90;;;;;;5104679;28;20044;-68
2023/08/20 00:37:15;;;;;;;6.35;0.95;;;15.20;99.90;;;;;;5093924;27;20031;-68
2023/08/20 00:39:41;;;;;;;0.10;0.10;;;15.20;99.90;;;;;;5106319;27;20042;-68
2023/08/20 00:42:07;;;;;;;0.10;0.10;;;15.30;99.90;;;;;;5132482;27;20031;-68
2023/08/20 00:44:33;;;;;;;0.90;0.20;;;15.20;99.90;;;;;;5102060;27;20046;-68
2023/08/20 00:47:04;;;;;;;0.00;0.00;;;15.10;99.90;;;;;;5098082;27;20221;-67
2023/08/20 00:49:31;;;;;;;0.10;0.10;;;15.10;99.90;;;;;;5123510;27;20031;-68
2023/08/20 00:51:57;;;;;;;0.10;0.10;;;15.00;99.90;;;;;;5117037;27;20743;-68
2023/08/20 00:54:23;;;;;;;0.20;0.20;;;15.10;99.90;;;;;;5099234;27;20027;-68
2023/08/20 00:56:50;;;;;;;0.85;0.22;;;15.10;99.90;;;;;;5099941;27;20039;-68
2023/08/20 00:59:16;;;;;;;0.10;0.10;;;15.10;99.90;;;;;;5102281;27;20050;-68
2023/08/20 01:01:43;;;;;;;0.08;0.08;;;15.00;99.90;;;;;;5099146;27;20397;-68
2023/08/20 01:04:08;;;;;;;0.00;0.00;;;15.00;99.90;;;;;;5100891;27;20047;-68
2023/08/20 01:06:46;;;;;;;0.10;0.10;;;15.10;99.90;;;;;;5099910;27;20047;-68
2023/08/20 01:09:25;;;;;;;0.28;0.25;;;15.10;99.90;;;;;;5098814;27;20071;-68
2023/08/20 01:11:57;;;;;;;0.20;0.20;;;15.10;99.90;;;;;;5132948;27;20046;-68
2023/08/20 01:14:23;;;;;;;0.60;0.28;;;15.10;99.90;;;;;;5096377;28;20042;-68
2023/08/20 01:16:49;;;;;;;0.10;0.10;;;15.00;99.90;;;;;;5096750;27;20419;-68
2023/08/20 01:19:20;;;;;;;0.10;0.10;;;15.00;99.90;;;;;;5099272;27;20039;-68
2023/08/20 01:22:01;;;;;;;0.22;0.20;;;14.90;99.90;;;;;;5096974;27;20062;-68
2023/08/20 01:25:17;;;;;;;0.08;0.08;;;14.80;99.90;;;;;;5130833;27;20122;-68
2023/08/20 01:28:03;;;;;;;0.20;0.20;;;14.70;99.90;;;;;;5064719;27;21563;-68
2023/08/20 01:30:30;;;;;;;0.25;0.25;;;14.50;99.90;;;;;;5098922;27;20089;-68
2023/08/20 01:32:57;;;;;;;0.10;0.10;;;14.40;99.90;;;;;;5096525;27;20069;-67
2023/08/20 01:35:26;;;;;;;0.13;0.13;;;14.30;99.90;;;;;;5096874;27;20530;-67
2023/08/20 01:37:52;;;;;;;0.17;0.17;;;14.20;99.90;;;;;;5097180;27;20043;-68
2023/08/20 01:40:17;;;;;;;0.10;0.10;;;14.20;99.90;;;;;;5120251;27;20396;-67
2023/08/20 01:42:43;;;;;;;0.00;0.00;;;14.30;99.90;;;;;;5099313;28;20043;-67
2023/08/20 01:45:09;;;;;;;0.05;0.05;;;14.30;99.90;;;;;;5099889;27;20047;-67
2023/08/20 01:47:35;;;;;;;0.10;0.10;;;14.40;99.90;;;;;;5098268;27;20063;-68
2023/08/20 01:50:00;;;;;;;0.10;0.10;;;14.40;99.90;;;;;;5100679;27;20038;-67
2023/08/20 01:52:26;;;;;;;0.05;0.05;;;14.40;99.90;;;;;;5100014;27;20408;-68
2023/08/20 01:54:53;;;;;;;0.13;0.13;;;14.40;99.90;;;;;;5102735;27;20028;-68
2023/08/20 01:57:18;;;;;;;6.93;0.98;;;14.40;99.90;;;;;;5092582;27;20039;-68
2023/08/20 01:59:44;;;;;;;0.05;0.05;;;14.40;99.90;;;;;;5122082;27;20035;-68
2023/08/20 02:02:10;;;;;;;0.10;0.10;;;14.30;99.90;;;;;;5097948;27;20042;-68
2023/08/20 02:04:35;;;;;;;0.08;0.08;;;14.20;99.90;;;;;;5095036;27;20040;-68
2023/08/20 02:07:01;;;;;;;0.13;0.13;;;14.20;99.90;;;;;;5096900;27;20118;-68
2023/08/20 02:09:26;;;;;;;0.20;0.20;;;14.20;99.90;;;;;;5099334;27;20060;-68
2023/08/20 02:11:52;;;;;;;0.10;0.10;;;14.20;99.90;;;;;;5119805;27;20039;-68
2023/08/20 02:14:18;;;;;;;0.15;0.15;;;14.20;99.90;;;;;;5099270;27;20444;-67
2023/08/20 02:16:45;;;;;;;0.15;0.15;;;14.30;99.90;;;;;;5098433;27;20114;-68
2023/08/20 02:19:11;;;;;;;0.20;0.20;;;14.20;99.90;;;;;;5095715;27;20370;-67
2023/08/20 02:21:37;;;;;;;0.00;0.00;;;14.20;99.90;;;;;;5113566;27;20038;-68
2023/08/20 02:24:03;;;;;;;0.05;0.05;;;14.20;99.90;;;;;;5103880;27;20039;-68
2023/08/20 02:26:29;;;;;;;0.00;0.00;;;14.20;99.90;;;;;;5093367;27;20050;-68
2023/08/20 02:28:55;;;;;;;0.85;0.25;;;14.30;99.90;;;;;;5097302;27;20047;-68
2023/08/20 02:31:20;;;;;;;0.10;0.10;;;14.30;99.90;;;;;;5134103;27;20038;-68
2023/08/20 02:33:46;;;;;;;0.30;0.30;;;14.30;99.90;;;;;;5128550;27;20051;-68
2023/08/20 02:36:12;;;;;;;0.10;0.10;;;14.40;99.90;;;;;;5099899;27;20035;-67
2023/08/20 02:38:37;;;;;;;0.10;0.10;;;14.40;99.90;;;;;;5116433;27;20073;-67
2023/08/20 02:41:03;;;;;;;0.47;0.13;;;14.40;99.90;;;;;;5095143;27;20908;-67
2023/08/20 02:43:29;;;;;;;0.03;0.03;;;14.50;99.90;;;;;;5098179;27;20050;-68
2023/08/20 02:45:54;;;;;;;0.10;0.10;;;14.50;99.90;;;;;;5119427;27;20039;-68
2023/08/20 02:48:20;;;;;;;0.57;0.22;;;14.50;99.90;;;;;;5094036;27;20054;-67
2023/08/20 02:50:46;;;;;;;0.38;0.38;;;14.50;99.90;;;;;;5119218;27;20042;-67
2023/08/20 02:53:12;;;;;;;0.17;0.17;;;14.50;99.90;;;;;;5098905;27;20482;-68
2023/08/20 02:55:38;;;;;;;3.90;0.30;;;14.50;99.90;;;;;;5089771;27;20043;-68
2023/08/20 02:58:04;;;;;;;0.65;0.47;;;14.40;99.90;;;;;;5092853;27;20044;-68
2023/08/20 03:00:31;;;;;;;1.52;1.25;;;14.40;99.90;;;;;;5097697;27;20050;-68
2023/08/20 03:02:57;;;;;;;0.73;0.73;;;14.40;99.90;;;;;;5093516;27;20043;-68
2023/08/20 03:05:23;;;;;;;0.52;0.32;;;14.40;99.90;;;;;;5100087;27;20035;-68
2023/08/20 03:07:49;;;;;;;0.17;0.17;;;14.40;99.90;;;;;;5093844;27;20047;-68
2023/08/20 03:10:14;;;;;;;1.02;0.73;;;14.40;99.90;;;;;;5094099;27;20040;-68
2023/08/20 03:12:40;;;;;;;0.90;0.28;;;14.40;99.90;;;;;;5098476;27;20043;-67
2023/08/20 03:15:07;;;;;;;0.52;0.52;;;14.40;99.90;;;;;;5095728;27;20046;-67
2023/08/20 03:17:32;;;;;;;0.10;0.10;;;14.40;99.90;;;;;;5091765;27;20097;-68
2023/08/20 03:20:00;;;;;;;0.90;0.52;;;14.50;99.90;;;;;;5114067;27;20032;-68
2023/08/20 03:22:27;;;;;;;0.20;0.15;;;14.50;99.90;;;;;;5099371;27;20598;-68
2023/08/20 03:24:53;;;;;;;0.15;0.15;;;14.50;99.90;;;;;;5119455;27;20034;-67
2023/08/20 03:27:19;;;;;;;0.15;0.15;;;14.50;99.90;;;;;;5095678;27;20070;-67
2023/08/20 03:29:45;;;;;;;0.88;0.32;;;14.50;99.90;;;;;;5091772;27;20425;-68
2023/08/20 03:32:11;;;;;;;1.45;1.33;;;14.50;99.90;;;;;;5090396;27;20094;-68
2023/08/20 03:34:37;;;;;;;0.30;0.30;;;14.60;99.90;;;;;;5127157;27;20496;-68
2023/08/20 03:37:03;;;;;;;0.03;0.03;;;14.60;99.90;;;;;;5096693;27;20114;-68
2023/08/20 03:39:29;;;;;;;0.80;0.63;;;14.60;99.90;;;;;;5097474;27;20125;-68
2023/08/20 03:41:55;;;;;;;0.43;0.20;;;14.70;99.90;;;;;;5116959;27;20139;-68
2023/08/20 03:44:21;;;;;;;0.63;0.35;;;14.70;99.90;;;;;;5095590;28;20032;-68
2023/08/20 03:46:46;;;;;;;1.13;0.43;;;14.70;99.90;;;;;;5094859;28;20608;-68
2023/08/20 03:49:12;;;;;;;0.55;0.55;;;14.70;99.90;;;;;;5096445;27;20047;-68
2023/08/20 03:51:38;;;;;;;0.80;0.80;;;14.70;99.90;;;;;;5097148;28;20071;-68
2023/08/20 03:54:03;;;;;;;0.80;0.77;;;14.70;99.90;;;;;;5095991;28;20035;-68
2023/08/20 03:56:29;;;;;;;0.10;0.10;;;14.70;99.90;;;;;;5097318;27;20039;-68
2023/08/20 03:58:55;;;;;;;1.58;1.48;;;14.70;99.90;;;;;;5126115;27;20130;-68
2023/08/20 04:01:21;;;;;;;0.17;0.17;;;14.70;99.90;;;;;;5099157;27;20586;-68
2023/08/20 04:03:48;;;;;;;0.10;0.10;;;14.70;99.90;;;;;;5115692;27;20035;-68
2023/08/20 04:06:14;;;;;;;2.83;0.70;;;14.60;99.90;;;;;;5101383;28;20081;-68
2023/08/20 04:08:40;;;;;;;1.05;0.90;;;14.50;99.90;;;;;;5096339;28;20428;-68
2023/08/20 04:11:05;;;;;;;0.50;0.50;;;14.50;99.90;;;;;;5100003;28;20142;-68
2023/08/20 04:13:31;;;;;;;0.52;0.52;;;14.50;99.90;;;;;;5099088;28;20043;-68
2023/08/20 04:15:57;;;;;;;0.50;0.50;;;14.60;99.90;;;;;;5099190;28;20027;-68
2023/08/20 04:18:23;;;;;;;0.30;0.30;;;14.50;99.90;;;;;;5099972;28;20491;-68
2023/08/20 04:20:52;;;;;;;0.40;0.40;;;14.50;99.90;;;;;;5096706;28;20063;-68
2023/08/20 04:23:21;;;;;;;1.00;0.70;;;14.50;99.90;;;;;;5096247;28;20048;-68
2023/08/20 04:25:47;;;;;;;1.08;0.20;;;14.60;99.90;;;;;;5106604;28;20084;-68
2023/08/20 04:28:12;;;;;;;0.10;0.10;;;14.60;99.90;;;;;;5095319;28;20961;-68
2023/08/20 04:30:38;;;;;;;0.10;0.10;;;14.60;99.90;;;;;;5097013;28;20481;-68
2023/08/20 04:33:04;;;;;;;2.60;0.63;;;14.60;99.90;;;;;;5109325;27;20039;-68
2023/08/20 04:35:30;;;;;;;0.73;0.73;;;14.60;99.90;;;;;;5128839;27;20085;-68
2023/08/20 04:37:56;;;;;;;0.38;0.38;;;14.70;99.90;;;;;;5094780;28;20047;-67
2023/08/20 04:40:21;;;;;;;1.10;0.40;;;14.70;99.90;;;;;;5097976;28;20072;-67
2023/08/20 04:42:47;;;;;;;0.75;0.70;;;14.80;99.90;;;;;;5096264;28;20039;-67
2023/08/20 04:45:12;;;;;;;1.40;0.32;;;14.90;99.90;;;;;;5103034;28;20412;-68
2023/08/20 04:47:38;;;;;;;3.08;0.68;;;14.90;99.90;;;;;;5099783;28;20050;-67
2023/08/20 04:50:07;;;;;;;0.60;0.28;;;15.00;99.90;;;;;;5096363;28;20389;-67
2023/08/20 04:52:33;;;;;;;1.75;0.82;;;15.00;99.90;;;;;;5096138;28;20494;-67
2023/08/20 04:55:00;;;;;;;0.60;0.50;;;15.10;99.90;;;;;;5098057;28;20438;-67
2023/08/20 04:57:25;;;;;;;0.38;0.38;;;15.10;99.90;;;;;;5094338;28;20428;-68
2023/08/20 04:59:51;;;;;;;0.47;0.40;;;15.10;99.90;;;;;;5095985;28;20038;-67
2023/08/20 05:02:17;;;;;;;1.17;0.85;;;14.90;99.90;;;;;;5112238;28;20038;-67
2023/08/20 05:04:42;;;;;;;0.98;0.75;;;14.70;99.90;;;;;;5096287;28;20039;-67
2023/08/20 05:07:09;;;;;;;0.45;0.45;;;14.60;99.90;;;;;;5102200;28;20478;-68
2023/08/20 05:09:34;;;;;;;0.10;0.10;;;14.60;99.90;;;;;;5098863;28;20394;-68
2023/08/20 05:12:00;;;;;;;0.90;0.60;;;14.60;99.90;;;;;;5101274;28;20039;-68
2023/08/20 05:14:25;;;;;;;0.20;0.20;;;14.70;99.90;;;;;;5100216;28;20042;-68
2023/08/20 05:16:51;;;;;;;0.28;0.22;;;14.70;99.90;;;;;;5075917;27;20047;-67
2023/08/20 05:19:17;;;;;;;0.20;0.20;;;14.80;99.90;;;;;;5128536;27;20043;-67
2023/08/20 05:21:42;;;;;;;0.10;0.10;;;14.80;99.90;;;;;;5098294;27;20063;-68
2023/08/20 05:24:09;;;;;;;0.15;0.15;;;14.90;99.90;;;;;;5108934;27;20043;-68
2023/08/20 05:26:34;;;;;;;0.20;0.20;;;14.90;99.90;;;;;;5095711;27;20043;-68
2023/08/20 05:29:00;;;;;;;0.35;0.30;;;15.00;99.90;;;;;;5100156;27;20031;-67
2023/08/20 05:31:26;;;;;;;0.10;0.10;;;15.00;99.90;;;;;;5115025;27;20039;-67
2023/08/20 05:33:51;;;;;;;0.30;0.30;;;15.00;99.90;;;;;;5110218;27;20027;-67
2023/08/20 05:36:17;;;;;;;0.30;0.30;;;15.10;99.90;;;;;;5093991;27;20035;-67
2023/08/20 05:38:43;;;;;;;0.82;0.82;;;15.20;99.90;;;;;;5098225;27;20129;-67
2023/08/20 05:41:09;;;;;;;0.75;0.75;;;15.20;99.90;;;;;;5116434;27;20043;-67
2023/08/20 05:43:36;;;;;;;1.02;1.02;;;15.30;99.90;;;;;;5097235;27;20542;-67
2023/08/20 05:46:03;;;;;;;0.30;0.30;;;15.40;99.90;;;;;;5096575;27;20550;-67
2023/08/20 05:48:29;;;;;;;0.50;0.50;;;15.50;99.90;;;;;;5097195;27;20055;-67
2023/08/20 05:50:56;;;;;;;0.85;0.50;;;15.50;99.90;;;;;;5102317;27;20067;-67
2023/08/20 05:53:22;;;;;;;0.90;0.25;;;15.60;99.90;;;;;;5102225;27;20050;-67
2023/08/20 05:55:48;;;;;;;0.77;0.52;;;15.60;99.90;;;;;;5086287;27;20035;-67
2023/08/20 05:58:14;;;;;;;1.65;0.63;;;15.80;99.90;;;;;;5097436;27;20049;-67
2023/08/20 06:00:39;;;;;;;0.35;0.35;;;15.80;99.90;;;;;;5105061;27;20077;-67
2023/08/20 06:03:07;;;;;;;0.38;0.38;;;15.90;99.90;;;;;;5100754;27;20031;-67
2023/08/20 06:05:33;;;;;;;0.65;0.65;;;15.90;99.90;;;;;;5108926;27;20042;-67
2023/08/20 06:07:59;;;;;;;0.20;0.20;;;16.10;99.90;;;;;;5085437;27;20034;-67
2023/08/20 06:10:24;;;;;;;0.55;0.55;;;16.10;99.90;;;;;;5093887;27;20042;-67
2023/08/20 06:12:50;;;;;;;0.40;0.40;;;16.20;99.90;;;;;;5111117;27;20039;-67
2023/08/20 06:15:16;;;;;;;0.57;0.57;;;16.40;99.90;;;;;;5114153;27;20035;-67
2023/08/20 06:17:41;;;;;;;5.82;1.67;;;16.40;99.90;;;;;;5102653;27;20127;-67
2023/08/20 06:20:08;;;;;;;0.47;0.45;;;16.50;99.90;;;;;;5115422;27;20062;-67
2023/08/20 06:22:34;;;;;;;0.20;0.20;;;16.70;99.90;;;;;;5096288;28;20043;-68
2023/08/20 06:25:00;;;;;;;0.52;0.52;;;16.70;99.90;;;;;;5106209;27;20476;-68
2023/08/20 06:27:26;;;;;;;0.45;0.45;;;16.90;99.90;;;;;;5101592;27;20039;-68
2023/08/20 06:29:51;;;;;;;0.17;0.17;;;17.00;99.90;;;;;;5096845;27;20367;-68
2023/08/20 06:32:17;;;;;;;0.68;0.38;;;17.10;99.90;;;;;;5099840;27;20032;-68
2023/08/20 06:34:42;;;;;;;0.20;0.20;;;17.20;99.90;;;;;;5120908;27;20043;-68
2023/08/20 06:37:08;;;;;;;0.10;0.10;;;17.30;99.90;;;;;;5130523;27;20031;-68
2023/08/20 06:39:34;;;;;;;0.15;0.15;;;17.40;99.90;;;;;;5104738;27;20498;-68
2023/08/20 06:42:00;;;;;;;0.30;0.20;;;17.40;99.90;;;;;;5101264;27;20473;-68
2023/08/20 06:44:26;;;;;;;0.77;0.77;;;17.50;99.90;;;;;;5099099;27;20043;-69
2023/08/20 06:46:51;;;;;;;0.25;0.25;;;17.60;99.90;;;;;;5099613;27;20043;-69
2023/08/20 06:49:17;;;;;;;0.82;0.70;;;17.70;99.90;;;;;;5106489;27;20088;-68
2023/08/20 06:51:42;;;;;;;0.50;0.47;;;17.80;99.90;;;;;;5106163;27;20038;-68
2023/08/20 06:54:08;;;;;;;0.47;0.25;;;17.90;99.90;;;;;;5102130;27;20031;-68
2023/08/20 06:56:34;;;;;;;1.52;0.93;;;18.00;99.90;;;;;;5103461;27;20046;-69
2023/08/20 06:59:02;;;;;;;0.38;0.35;;;18.10;99.90;;;;;;5097359;27;20038;-68
2023/08/20 07:01:28;;;;;;;1.33;0.25;;;18.20;99.90;;;;;;5103387;27;20444;-68
2023/08/20 07:03:54;;;;;;;0.30;0.30;;;18.20;99.90;;;;;;5096069;28;20043;-68
2023/08/20 07:06:20;;;;;;;0.68;0.45;;;18.30;99.90;;;;;;5098270;27;20063;-68
2023/08/20 07:08:45;;;;;;;0.60;0.60;;;18.40;99.90;;;;;;5097632;27;20127;-68
2023/08/20 07:11:11;;;;;;;0.73;0.73;;;18.50;99.90;;;;;;5094697;27;20478;-69
2023/08/20 07:13:37;;;;;;;0.65;0.65;;;18.50;99.90;;;;;;5092138;27;20404;-68
2023/08/20 07:16:03;;;;;;;9.13;1.00;;;18.60;99.90;;;;;;5103192;27;20428;-69
2023/08/20 07:18:28;;;;;;;0.40;0.40;;;18.70;99.90;;;;;;5100549;27;20047;-68
2023/08/20 07:20:55;;;;;;;0.75;0.75;;;18.70;99.90;;;;;;5105118;27;20035;-69
2023/08/20 07:23:21;;;;;;;0.30;0.30;;;18.80;99.90;;;;;;5096885;27;20824;-69
2023/08/20 07:25:48;;;;;;;0.57;0.57;;;18.80;99.90;;;;;;5095460;27;20063;-69
2023/08/20 07:28:14;;;;;;;0.55;0.32;;;18.90;99.90;;;;;;5100041;27;20086;-69
2023/08/20 07:30:39;;;;;;;0.77;0.65;;;19.00;99.90;;;;;;5099967;27;20039;-68
2023/08/20 07:33:06;;;;;;;0.15;0.15;;;19.10;99.90;;;;;;5103734;28;20410;-68
2023/08/20 07:35:32;;;;;;;1.10;0.30;;;19.20;99.90;;;;;;5091102;27;20058;-68
2023/08/20 07:37:57;;;;;;;0.30;0.30;;;19.20;99.90;;;;;;5100645;27;20046;-69
2023/08/20 07:40:23;;;;;;;0.22;0.22;;;19.20;99.90;;;;;;5101084;27;20035;-70
2023/08/20 07:42:50;;;;;;;0.65;0.65;;;19.30;99.90;;;;;;5111656;28;20040;-69
2023/08/20 07:45:16;;;;;;;0.88;0.68;;;19.30;99.90;;;;;;5098543;27;20046;-68
2023/08/20 07:47:42;;;;;;;1.25;1.15;;;19.40;99.90;;;;;;5094158;27;20065;-68
2023/08/20 07:50:08;;;;;;;1.92;1.40;;;19.50;99.90;;;;;;5126620;27;20073;-68
2023/08/20 07:52:34;;;;;;;0.50;0.20;;;19.50;99.90;;;;;;5104747;27;20046;-68
2023/08/20 07:55:00;;;;;;;0.65;0.65;;;19.60;99.90;;;;;;5111361;27;20050;-68
2023/08/20 07:57:25;;;;;;;0.32;0.30;;;19.60;99.90;;;;;;5109412;27;20482;-68
2023/08/20 07:59:51;;;;;;;0.60;0.60;;;19.70;99.90;;;;;;5106508;28;20176;-68
2023/08/20 08:02:17;;;;;;;0.47;0.47;;;19.80;99.90;;;;;;5098788;28;21180;-68
2023/08/20 08:04:43;;;;;;;0.80;0.68;;;19.90;99.90;;;;;;5095739;27;20525;-68
2023/08/20 08:07:12;;;;;;;0.68;0.22;;;20.00;99.90;;;;;;5104484;28;20050;-69
2023/08/20 08:09:38;;;;;;;1.88;1.13;;;20.00;99.90;;;;;;5098724;27;20043;-68
2023/08/20 08:12:04;;;;;;;0.93;0.80;;;20.10;99.90;;;;;;5121114;27;20046;-69
2023/08/20 08:14:30;;;;;;;0.47;0.47;;;20.10;99.90;;;;;;5108743;28;20042;-69
2023/08/20 08:16:56;;;;;;;0.75;0.55;;;20.20;99.90;;;;;;5108343;28;20505;-69
2023/08/20 08:19:22;;;;;;;0.45;0.45;;;20.20;99.90;;;;;;5101055;28;20394;-69
2023/08/20 08:21:48;;;;;;;0.80;0.30;;;20.30;99.90;;;;;;5109638;28;20037;-68
2023/08/20 08:24:14;;;;;;;0.73;0.73;;;20.30;99.90;;;;;;5093832;28;20046;-68
2023/08/20 08:26:41;;;;;;;0.40;0.30;;;20.30;99.90;;;;;;5098824;28;20050;-68
2023/08/20 08:29:07;;;;;;;0.40;0.40;;;20.40;99.90;;;;;;5093831;28;20051;-69
2023/08/20 08:31:34;;;;;;;0.10;0.10;;;20.50;99.90;;;;;;5102027;28;20485;-69
2023/08/20 08:33:59;;;;;;;0.30;0.30;;;20.60;99.90;;;;;;5096349;28;20039;-69
2023/08/20 08:36:25;;;;;;;0.52;0.50;;;20.70;99.90;;;;;;5106917;28;20062;-68
2023/08/20 08:38:52;;;;;;;0.28;0.28;;;20.70;99.90;;;;;;5103319;28;20044;-68
2023/08/20 08:41:23;;;;;;;0.93;0.63;;;20.70;99.90;;;;;;5102763;28;20039;-68
2023/08/20 08:43:49;;;;;;;0.90;0.28;;;20.80;99.90;;;;;;5123053;28;20046;-68
2023/08/20 08:46:15;;;;;;;1.52;0.63;;;20.80;99.90;;;;;;5110708;28;20039;-68
2023/08/20 08:48:43;;;;;;;4.68;1.85;;;20.90;99.90;;;;;;5104268;28;20035;-68
2023/08/20 08:51:09;;;;;;;0.35;0.20;;;20.90;99.90;;;;;;5112278;28;20378;-69
2023/08/20 08:53:35;;;;;;;0.20;0.20;;;21.00;99.90;;;;;;5109992;27;20060;-69
2023/08/20 08:56:02;;;;;;;0.65;0.35;;;21.00;99.90;;;;;;5110210;28;20035;-67
2023/08/20 08:58:28;;;;;;;0.40;0.40;;;21.10;99.90;;;;;;5109166;27;20096;-66
2023/08/20 09:00:54;;;;;;;12.73;1.50;;;21.10;99.90;;;;;;5132875;27;20063;-67
2023/08/20 09:03:20;;;;;;;0.90;0.90;;;21.20;99.90;;;;;;5108441;27;20076;-68
2023/08/20 09:05:54;;;;;;;1.25;0.70;;;21.30;99.90;;;;;;5116511;27;20051;-68
2023/08/20 09:08:21;;;;;;;0.55;0.40;;;21.30;99.90;;;;;;5104265;27;20514;-67
2023/08/20 09:10:50;;;;;;;9.77;2.83;;;21.30;99.90;;;;;;5112544;27;20061;-67
2023/08/20 09:13:15;;;;;;;1.55;0.88;;;21.40;99.90;;;;;;5120043;27;20031;-67
2023/08/20 09:15:41;;;;;;;0.75;0.60;;;21.50;99.90;;;;;;5115726;27;20054;-67
2023/08/20 09:18:10;;;;;;;0.80;0.80;;;21.50;99.90;;;;;;5107712;27;20104;-68
2023/08/20 09:20:38;;;;;;;0.10;0.10;;;21.70;99.90;;;;;;5136522;27;20397;-67
2023/08/20 09:23:10;;;;;;;6.53;0.95;;;21.70;99.90;;;;;;5109220;27;20504;-70
2023/08/20 09:25:36;;;;;;;0.10;0.10;;;21.70;99.90;;;;;;5109519;27;20053;-68
2023/08/20 09:28:05;;;;;;;0.40;0.32;;;21.70;99.90;;;;;;5124823;27;20026;-67
2023/08/20 09:30:31;;;;;;;0.10;0.10;;;21.80;99.90;;;;;;5115356;27;20046;-67
2023/08/20 09:33:14;;;;;;;0.50;0.50;;;21.80;99.90;;;;;;5102053;27;20046;-69
2023/08/20 09:35:49;;;;;;;0.10;0.10;;;21.90;99.90;;;;;;5094709;28;20502;-67
2023/08/20 09:38:14;;;;;;;0.57;0.57;;;21.90;99.90;;;;;;5096721;27;20085;-68
2023/08/20 09:40:40;;;;;;;6.53;0.38;;;21.90;99.90;;;;;;5111640;28;20067;-66
2023/08/20 09:43:08;;;;;;;0.10;0.10;;;22.00;99.90;;;;;;5100941;27;22135;-67
2023/08/20 09:45:36;;;;;;;0.20;0.20;;;22.10;99.90;;;;;;5105430;27;20054;-68
2023/08/20 09:48:05;;;;;;;0.25;0.20;;;22.10;99.90;;;;;;5106315;27;20040;-67
2023/08/20 09:50:36;;;;;;;0.95;0.52;;;22.20;99.90;;;;;;5099554;27;20088;-67
2023/08/20 09:53:24;;;;;;;0.55;0.55;;;22.20;99.90;;;;;;5104633;27;20088;-67
2023/08/20 09:55:52;;;;;;;0.77;0.25;;;22.20;99.90;;;;;;5115206;27;20039;-67
2023/08/20 09:58:25;;;;;;;1.20;1.10;;;22.30;99.90;;;;;;5106688;27;20047;-69
2023/08/20 10:00:51;;;;;;;0.28;0.20;;;22.30;99.90;;;;;;5109803;27;20039;-66
2023/08/20 10:03:19;;;;;;;0.20;0.20;;;22.30;99.90;;;;;;5113868;27;20035;-66
2023/08/20 10:05:48;;;;;;;0.10;0.10;;;22.30;99.90;;;;;;5112357;28;20046;-67
2023/08/20 10:08:14;;;;;;;2.22;0.30;;;22.40;99.90;;;;;;5094921;27;20403;-65
2023/08/20 10:10:40;;;;;;;0.10;0.10;;;22.50;99.90;;;;;;5121563;27;20076;-66
2023/08/20 10:13:06;;;;;;;0.43;0.43;;;22.50;99.90;;;;;;5114177;27;20039;-66
2023/08/20 10:15:33;;;;;;;0.10;0.10;;;22.60;99.90;;;;;;5095170;27;20036;-66
2023/08/20 10:18:00;;;;;;;0.93;0.93;;;22.70;99.90;;;;;;5119629;27;20126;-66
2023/08/20 10:20:29;;;;;;;0.80;0.30;;;22.70;99.90;;;;;;5095035;28;20035;-67
2023/08/20 10:23:02;;;;;;;3.85;0.88;;;22.80;99.90;;;;;;5089886;27;20035;-68
2023/08/20 10:25:29;;;;;;;0.10;0.05;;;22.70;99.90;;;;;;5111996;27;20126;-66
2023/08/20 10:28:10;;;;;;;0.10;0.10;;;22.70;99.90;;;;;;5094431;28;20091;-67
2023/08/20 10:30:35;;;;;;;0.10;0.10;;;22.70;99.90;;;;;;5095290;28;20047;-66
2023/08/20 10:33:03;;;;;;;0.30;0.30;;;22.70;99.90;;;;;;5112740;27;20039;-65
2023/08/20 10:35:37;;;;;;;0.10;0.10;;;22.70;99.90;;;;;;5149916;27;20126;-66
2023/08/20 10:38:11;;;;;;;0.15;0.05;;;22.80;99.90;;;;;;5100796;27;20040;-66
2023/08/20 10:40:56;;;;;;;0.50;0.38;;;23.00;99.90;;;;;;5094713;28;20158;-65
2023/08/20 10:43:33;;;;;;;1.00;1.00;;;23.00;99.90;;;;;;5092698;27;20162;-66
2023/08/20 10:46:03;;;;;;;0.43;0.43;;;23.20;99.90;;;;;;5094168;28;20042;-65
2023/08/20 10:48:30;;;;;;;2.38;0.38;;;23.30;99.90;;;;;;5096951;27;20085;-66
2023/08/20 10:50:56;;;;;;;0.10;0.10;;;23.40;99.90;;;;;;5153646;27;20047;-68
2023/08/20 10:53:23;;;;;;;2.35;0.10;;;23.50;99.90;;;;;;5102999;27;20042;-66
2023/08/20 10:55:49;;;;;;;0.65;0.30;;;23.60;99.90;;;;;;5109591;27;20038;-68
2023/08/20 10:58:15;;;;;;;0.17;0.17;;;23.70;99.90;;;;;;5120031;27;20470;-67
2023/08/20 11:00:42;;;;;;;1.45;0.30;;;23.70;99.90;;;;;;5126059;27;20063;-68
2023/08/20 11:03:07;;;;;;;0.10;0.10;;;23.70;99.90;;;;;;5112726;27;20065;-69
2023/08/20 11:05:34;;;;;;;0.20;0.20;;;23.70;99.90;;;;;;5134554;27;20419;-68
2023/08/20 11:08:00;;;;;;;0.65;0.65;;;23.70;99.90;;;;;;5120489;27;20042;-66
2023/08/20 11:10:27;;;;;;;0.10;0.10;;;23.70;99.90;;;;;;5093799;27;20525;-68
2023/08/20 11:12:52;;;;;;;2.72;0.45;;;23.70;99.90;;;;;;5093576;28;20406;-67
2023/08/20 11:15:18;;;;;;;0.22;0.22;;;23.60;99.90;;;;;;5093135;28;20039;-67
2023/08/20 11:17:47;;;;;;;3.95;1.00;;;23.60;99.90;;;;;;5096223;28;20126;-68
2023/08/20 11:20:16;;;;;;;0.65;0.65;;;23.70;99.90;;;;;;5111791;27;20513;-67
2023/08/20 11:22:42;;;;;;;0.47;0.47;;;23.80;99.90;;;;;;5106330;27;20031;-67
2023/08/20 11:25:12;;;;;;;0.52;0.52;;;23.90;99.90;;;;;;5103899;27;20027;-68
2023/08/20 11:27:42;;;;;;;5.57;0.38;;;23.90;99.90;;;;;;5105354;27;20479;-66
2023/08/20 11:30:10;;;;;;;0.20;0.20;;;23.90;99.90;;;;;;5103060;27;20035;-68
2023/08/20 11:32:36;;;;;;;1.23;0.68;;;23.80;99.90;;;;;;5103439;27;20040;-67
2023/08/20 11:35:02;;;;;;;0.10;0.10;;;23.60;99.90;;;;;;5105807;27;20031;-68
2023/08/20 11:37:28;;;;;;;2.05;0.38;;;23.60;99.90;;;;;;5114317;27;20058;-69
2023/08/20 11:39:53;;;;;;;0.45;0.45;;;23.60;99.90;;;;;;5110526;27;20073;-68
2023/08/20 11:42:19;;;;;;;0.10;0.10;;;23.60;99.90;;;;;;5106311;28;20035;-70
2023/08/20 11:44:46;;;;;;;0.30;0.30;;;23.60;99.90;;;;;;5092732;27;20035;-67
2023/08/20 11:47:18;;;;;;;0.20;0.20;;;23.70;99.90;;;;;;5091462;28;20122;-69
2023/08/20 11:49:44;;;;;;;0.25;0.20;;;23.70;99.90;;;;;;5126049;27;20051;-67
2023/08/20 11:52:12;;;;;;;0.20;0.20;;;23.60;99.90;;;;;;5127794;27;20858;-69
2023/08/20 11:54:38;;;;;;;0.30;0.30;;;23.60;99.90;;;;;;5111835;27;20154;-72
2023/08/20 11:57:10;;;;;;;0.82;0.38;;;23.60;99.90;;;;;;5116760;27;20070;-68
2023/08/20 11:59:36;;;;;;;2.08;1.15;;;23.60;99.90;;;;;;5118380;27;20071;-68
2023/08/20 12:02:03;;;;;;;0.32;0.20;;;23.60;99.90;;;;;;5103906;28;20084;-70
2023/08/20 12:04:30;;;;;;;0.17;0.17;;;23.60;99.90;;;;;;5107389;27;20039;-70
2023/08/20 12:07:13;;;;;;;0.30;0.30;;;23.60;99.90;;;;;;5095924;28;20079;-67
2023/08/20 12:09:39;;;;;;;0.38;0.30;;;23.50;99.90;;;;;;5100346;27;20047;-69
2023/08/20 12:12:06;;;;;;;0.68;0.68;;;23.60;99.90;;;;;;5097499;27;20047;-68
2023/08/20 12:14:34;;;;;;;0.20;0.20;;;23.60;99.90;;;;;;5089100;28;20047;-68
2023/08/20 12:16:59;;;;;;;0.10;0.10;;;23.70;99.90;;;;;;5098784;28;20146;-70
2023/08/20 12:19:25;;;;;;;0.20;0.20;;;23.80;99.90;;;;;;5106700;28;20121;-70
2023/08/20 12:21:51;;;;;;;0.10;0.10;;;23.80;99.90;;;;;;5095888;28;20486;-70
2023/08/20 12:24:19;;;;;;;1.48;1.38;;;23.80;99.90;;;;;;5100002;28;20027;-68
2023/08/20 12:26:45;;;;;;;0.20;0.20;;;23.70;99.90;;;;;;5099939;27;20089;-69
2023/08/20 12:29:10;;;;;;;0.28;0.28;;;23.70;99.90;;;;;;5110213;27;20070;-67
2023/08/20 12:31:36;;;;;;;0.20;0.20;;;23.70;99.90;;;;;;5115350;27;20039;-68
2023/08/20 12:34:05;;;;;;;0.30;0.30;;;23.70;99.90;;;;;;5095067;28;20045;-70
2023/08/20 12:36:30;;;;;;;0.10;0.10;;;23.80;99.90;;;;;;5095442;27;20044;-68
2023/08/20 12:38:56;;;;;;;0.10;0.10;;;23.80;99.90;;;;;;5109132;27;20043;-70
2023/08/20 12:41:22;;;;;;;2.85;0.38;;;23.80;99.90;;;;;;5095321;28;20050;-69
2023/08/20 12:43:47;;;;;;;0.35;0.35;;;23.80;99.90;;;;;;5095175;28;20386;-70
2023/08/20 12:46:13;;;;;;;0.20;0.20;;;23.80;99.90;;;;;;5095819;28;20089;-70